Station Historical Data
Daily Summary for May 5, 2011 Units:  Both    English   Metric
« Previous Day
Next Day »
Daily Weekly Monthly Yearly Custom
  High: Low: Average:
Temperature: 66.9 °F /  19.4 °C 41.0 °F /  5 °C 53.5 °F /  11.9 °C
Dew Point: 46.1 °F /  7.8 °C 35.9 °F /  2.2 °C 40.5 °F /  4.7 °C
Humidity: 88% 34% 64%
Wind Speed: 10.0mph /  16.1km/h - 2.5mph /  4km/h
Wind Gust: 11.0mph /  17.7km/h - -
Wind- - ESE
Pressure: 30.33 in /  1027 hPa 30.06 in /  1017.8 hPa -
Precipitation: 0.00 in /  0 mm    
Historical Graphs
 
 
Tabular Data for May 5, 2011
Time Temperature Dew Point Pressure Wind Wind Speed Wind Gust Humidity Rainfall Rate (Hourly) Conditions
00:00 48.0 °F /  8.9 °C 40.8 °F /  4.9 °C 30.33in /  1027hPa NNE 3.0mph /  4.8km/h 3.0mph /  4.8km/h 76% 0.00in /  0mm
00:01 48.0 °F /  8.9 °C 40.8 °F /  4.9 °C 30.33in /  1027hPa NNE 2.0mph /  3.2km/h 3.0mph /  4.8km/h 76% 0.00in /  0mm
00:05 47.9 °F /  8.8 °C 40.7 °F /  4.8 °C 30.33in /  1027hPa NNE 2.0mph /  3.2km/h 4.0mph /  6.4km/h 76% 0.00in /  0mm
00:06 47.9 °F /  8.8 °C 40.7 °F /  4.8 °C 30.33in /  1027hPa NNE 2.0mph /  3.2km/h 4.0mph /  6.4km/h 76% 0.00in /  0mm
00:11 47.8 °F /  8.8 °C 40.6 °F /  4.8 °C 30.33in /  1027hPa NE 4.0mph /  6.4km/h 5.0mph /  8km/h 76% 0.00in /  0mm
00:16 47.8 °F /  8.8 °C 40.6 °F /  4.8 °C 30.33in /  1027hPa NE 3.0mph /  4.8km/h 4.0mph /  6.4km/h 76% 0.00in /  0mm
00:21 47.8 °F /  8.8 °C 40.6 °F /  4.8 °C 30.33in /  1027hPa NE 2.0mph /  3.2km/h 4.0mph /  6.4km/h 76% 0.00in /  0mm
00:26 47.7 °F /  8.7 °C 40.5 °F /  4.7 °C 30.33in /  1027hPa NE 3.0mph /  4.8km/h 5.0mph /  8km/h 76% 0.00in /  0mm
00:27 47.7 °F /  8.7 °C 40.5 °F /  4.7 °C 30.33in /  1027hPa NE 2.0mph /  3.2km/h 5.0mph /  8km/h 76% 0.00in /  0mm
00:28 47.6 °F /  8.7 °C 40.4 °F /  4.7 °C 30.33in /  1027hPa NNE 2.0mph /  3.2km/h 5.0mph /  8km/h 76% 0.00in /  0mm
00:33 47.6 °F /  8.7 °C 40.4 °F /  4.7 °C 30.33in /  1027hPa NE 2.0mph /  3.2km/h 4.0mph /  6.4km/h 76% 0.00in /  0mm
00:34 47.6 °F /  8.7 °C 40.4 °F /  4.7 °C 30.33in /  1027hPa NE 2.0mph /  3.2km/h 4.0mph /  6.4km/h 76% 0.00in /  0mm
00:37 47.5 °F /  8.6 °C 40.3 °F /  4.6 °C 30.33in /  1027hPa NNE 3.0mph /  4.8km/h 5.0mph /  8km/h 76% 0.00in /  0mm
00:43 47.5 °F /  8.6 °C 40.3 °F /  4.6 °C 30.33in /  1027hPa NNE 2.0mph /  3.2km/h 4.0mph /  6.4km/h 76% 0.00in /  0mm
00:48 47.4 °F /  8.6 °C 40.2 °F /  4.6 °C 30.33in /  1027hPa North 2.0mph /  3.2km/h 6.0mph /  9.7km/h 76% 0.00in /  0mm
00:49 47.3 °F /  8.5 °C 40.1 °F /  4.5 °C 30.33in /  1027hPa NE 2.0mph /  3.2km/h 6.0mph /  9.7km/h 76% 0.00in /  0mm
00:54 47.2 °F /  8.4 °C 40.4 °F /  4.7 °C 30.33in /  1027hPa NE 3.0mph /  4.8km/h 5.0mph /  8km/h 77% 0.00in /  0mm
00:56 47.1 °F /  8.4 °C 40.3 °F /  4.6 °C 30.33in /  1027hPa NNE 3.0mph /  4.8km/h 5.0mph /  8km/h 77% 0.00in /  0mm
00:59 47.2 °F /  8.4 °C 40.4 °F /  4.7 °C 30.33in /  1027hPa NNE 4.0mph /  6.4km/h 4.0mph /  6.4km/h 77% 0.00in /  0mm
01:04 47.1 °F /  8.4 °C 39.9 °F /  4.4 °C 30.33in /  1027hPa NE 3.0mph /  4.8km/h 4.0mph /  6.4km/h 76% 0.00in /  0mm
01:09 47.1 °F /  8.4 °C 39.9 °F /  4.4 °C 30.33in /  1027hPa NNE 2.0mph /  3.2km/h 4.0mph /  6.4km/h 76% 0.00in /  0mm
01:14 47.0 °F /  8.3 °C 40.2 °F /  4.6 °C 30.33in /  1027hPa NE 3.0mph /  4.8km/h 5.0mph /  8km/h 77% 0.00in /  0mm
01:20 46.9 °F /  8.3 °C 40.1 °F /  4.5 °C 30.33in /  1027hPa NE 1.0mph /  1.6km/h 3.0mph /  4.8km/h 77% 0.00in /  0mm
01:25 46.8 °F /  8.2 °C 40.0 °F /  4.4 °C 30.33in /  1027hPa NNE 1.0mph /  1.6km/h 3.0mph /  4.8km/h 77% 0.00in /  0mm
01:30 46.7 °F /  8.2 °C 39.9 °F /  4.4 °C 30.33in /  1027hPa NE 1.0mph /  1.6km/h 3.0mph /  4.8km/h 77% 0.00in /  0mm
01:31 46.7 °F /  8.2 °C 39.9 °F /  4.4 °C 30.33in /  1027hPa NE 1.0mph /  1.6km/h 3.0mph /  4.8km/h 77% 0.00in /  0mm
01:35 46.6 °F /  8.1 °C 39.8 °F /  4.3 °C 30.33in /  1027hPa NNE 2.0mph /  3.2km/h 2.0mph /  3.2km/h 77% 0.00in /  0mm
01:36 46.6 °F /  8.1 °C 39.8 °F /  4.3 °C 30.33in /  1027hPa NNE 2.0mph /  3.2km/h 2.0mph /  3.2km/h 77% 0.00in /  0mm
01:40 46.4 °F /  8 °C 39.6 °F /  4.2 °C 30.33in /  1027hPa NNE 1.0mph /  1.6km/h 2.0mph /  3.2km/h 77% 0.00in /  0mm
01:46 46.2 °F /  7.9 °C 39.7 °F /  4.3 °C 30.33in /  1027hPa NE 1.0mph /  1.6km/h 3.0mph /  4.8km/h 78% 0.00in /  0mm
01:51 45.9 °F /  7.7 °C 39.8 °F /  4.3 °C 30.33in /  1027hPa NE 4.0mph /  6.4km/h 4.0mph /  6.4km/h 79% 0.00in /  0mm
01:52 45.9 °F /  7.7 °C 39.8 °F /  4.3 °C 30.33in /  1027hPa NE 2.0mph /  3.2km/h 4.0mph /  6.4km/h 79% 0.00in /  0mm
01:56 45.9 °F /  7.7 °C 39.8 °F /  4.3 °C 30.33in /  1027hPa NNE 2.0mph /  3.2km/h 3.0mph /  4.8km/h 79% 0.00in /  0mm
01:57 45.9 °F /  7.7 °C 39.8 °F /  4.3 °C 30.33in /  1027hPa NNE 2.0mph /  3.2km/h 3.0mph /  4.8km/h 79% 0.00in /  0mm
01:58 45.9 °F /  7.7 °C 39.8 °F /  4.3 °C 30.33in /  1027hPa NNE 1.0mph /  1.6km/h 3.0mph /  4.8km/h 79% 0.00in /  0mm
02:03 45.9 °F /  7.7 °C 39.8 °F /  4.3 °C 30.33in /  1027hPa NE 2.0mph /  3.2km/h 2.0mph /  3.2km/h 79% 0.00in /  0mm
02:08 45.9 °F /  7.7 °C 39.8 °F /  4.3 °C 30.33in /  1027hPa NE 4.0mph /  6.4km/h 4.0mph /  6.4km/h 79% 0.00in /  0mm
02:13 45.9 °F /  7.7 °C 39.8 °F /  4.3 °C 30.33in /  1027hPa NE 2.0mph /  3.2km/h 3.0mph /  4.8km/h 79% 0.00in /  0mm
02:14 45.8 °F /  7.7 °C 39.7 °F /  4.3 °C 30.33in /  1027hPa NNE 1.0mph /  1.6km/h 3.0mph /  4.8km/h 79% 0.00in /  0mm
02:19 45.7 °F /  7.6 °C 39.6 °F /  4.2 °C 30.33in /  1027hPa NNE 1.0mph /  1.6km/h 2.0mph /  3.2km/h 79% 0.00in /  0mm
02:24 45.6 °F /  7.6 °C 39.8 °F /  4.3 °C 30.32in /  1026.6hPa NNE 3.0mph /  4.8km/h 3.0mph /  4.8km/h 80% 0.00in /  0mm
02:29 45.4 °F /  7.4 °C 39.6 °F /  4.2 °C 30.32in /  1026.6hPa NNE 3.0mph /  4.8km/h 4.0mph /  6.4km/h 80% 0.00in /  0mm
02:30 45.4 °F /  7.4 °C 39.6 °F /  4.2 °C 30.32in /  1026.6hPa NNE 1.0mph /  1.6km/h 4.0mph /  6.4km/h 80% 0.00in /  0mm
02:31 45.4 °F /  7.4 °C 39.6 °F /  4.2 °C 30.32in /  1026.6hPa NNE 3.0mph /  4.8km/h 4.0mph /  6.4km/h 80% 0.00in /  0mm
02:35 45.4 °F /  7.4 °C 39.6 °F /  4.2 °C 30.32in /  1026.6hPa NNE 2.0mph /  3.2km/h 4.0mph /  6.4km/h 80% 0.00in /  0mm
02:37 45.3 °F /  7.4 °C 39.5 °F /  4.2 °C 30.32in /  1026.6hPa NE 2.0mph /  3.2km/h 4.0mph /  6.4km/h 80% 0.00in /  0mm
02:40 45.2 °F /  7.3 °C 39.4 °F /  4.1 °C 30.32in /  1026.6hPa NNE 3.0mph /  4.8km/h 4.0mph /  6.4km/h 80% 0.00in /  0mm
02:42 45.2 °F /  7.3 °C 39.4 °F /  4.1 °C 30.32in /  1026.6hPa NNE 3.0mph /  4.8km/h 4.0mph /  6.4km/h 80% 0.00in /  0mm
02:47 45.1 °F /  7.3 °C 39.3 °F /  4.1 °C 30.32in /  1026.6hPa North 2.0mph /  3.2km/h 4.0mph /  6.4km/h 80% 0.00in /  0mm
02:48 45.0 °F /  7.2 °C 39.2 °F /  4 °C 30.32in /  1026.6hPa NNE 3.0mph /  4.8km/h 3.0mph /  4.8km/h 80% 0.00in /  0mm
02:53 44.8 °F /  7.1 °C 39.3 °F /  4.1 °C 30.32in /  1026.6hPa NNE 2.0mph /  3.2km/h 4.0mph /  6.4km/h 81% 0.00in /  0mm
02:54 44.8 °F /  7.1 °C 39.3 °F /  4.1 °C 30.32in /  1026.6hPa NNE 3.0mph /  4.8km/h 3.0mph /  4.8km/h 81% 0.00in /  0mm
02:57 44.7 °F /  7.1 °C 39.2 °F /  4 °C 30.31in /  1026.3hPa NE 3.0mph /  4.8km/h 4.0mph /  6.4km/h 81% 0.00in /  0mm
02:59 44.7 °F /  7.1 °C 39.2 °F /  4 °C 30.32in /  1026.6hPa NNE 2.0mph /  3.2km/h 4.0mph /  6.4km/h 81% 0.00in /  0mm
03:02 44.5 °F /  6.9 °C 39.4 °F /  4.1 °C 30.32in /  1026.6hPa NE 4.0mph /  6.4km/h 5.0mph /  8km/h 82% 0.00in /  0mm
03:07 44.4 °F /  6.9 °C 39.3 °F /  4.1 °C 30.32in /  1026.6hPa NE 2.0mph /  3.2km/h 4.0mph /  6.4km/h 82% 0.00in /  0mm
03:12 44.5 °F /  6.9 °C 39.4 °F /  4.1 °C 30.31in /  1026.3hPa NNE 1.0mph /  1.6km/h 4.0mph /  6.4km/h 82% 0.00in /  0mm
03:13 44.5 °F /  6.9 °C 39.4 °F /  4.1 °C 30.32in /  1026.6hPa NNE 2.0mph /  3.2km/h 3.0mph /  4.8km/h 82% 0.00in /  0mm
03:18 44.5 °F /  6.9 °C 39.0 °F /  3.9 °C 30.31in /  1026.3hPa NE 5.0mph /  8km/h 5.0mph /  8km/h 81% 0.00in /  0mm
03:23 44.7 °F /  7.1 °C 39.2 °F /  4 °C 30.31in /  1026.3hPa NE 1.0mph /  1.6km/h 4.0mph /  6.4km/h 81% 0.00in /  0mm
03:28 44.6 °F /  7 °C 39.1 °F /  3.9 °C 30.31in /  1026.3hPa ENE 3.0mph /  4.8km/h 4.0mph /  6.4km/h 81% 0.00in /  0mm
03:29 44.6 °F /  7 °C 39.1 °F /  3.9 °C 30.31in /  1026.3hPa NNE 2.0mph /  3.2km/h 4.0mph /  6.4km/h 81% 0.00in /  0mm
03:33 44.7 °F /  7.1 °C 39.2 °F /  4 °C 30.31in /  1026.3hPa NE 2.0mph /  3.2km/h 4.0mph /  6.4km/h 81% 0.00in /  0mm
03:38 44.7 °F /  7.1 °C 39.2 °F /  4 °C 30.32in /  1026.6hPa ENE 1.0mph /  1.6km/h 3.0mph /  4.8km/h 81% 0.00in /  0mm
03:43 44.5 °F /  6.9 °C 39.0 °F /  3.9 °C 30.31in /  1026.3hPa NE 2.0mph /  3.2km/h 3.0mph /  4.8km/h 81% 0.00in /  0mm
03:49 44.4 °F /  6.9 °C 38.9 °F /  3.8 °C 30.31in /  1026.3hPa NE 2.0mph /  3.2km/h 3.0mph /  4.8km/h 81% 0.00in /  0mm
03:54 44.3 °F /  6.8 °C 39.2 °F /  4 °C 30.31in /  1026.3hPa NE 1.0mph /  1.6km/h 4.0mph /  6.4km/h 82% 0.00in /  0mm
03:59 44.3 °F /  6.8 °C 39.2 °F /  4 °C 30.31in /  1026.3hPa NE 2.0mph /  3.2km/h 3.0mph /  4.8km/h 82% 0.00in /  0mm
04:00 44.3 °F /  6.8 °C 39.2 °F /  4 °C 30.31in /  1026.3hPa ENE 2.0mph /  3.2km/h 3.0mph /  4.8km/h 82% 0.00in /  0mm
04:05 44.3 °F /  6.8 °C 39.2 °F /  4 °C 30.32in /  1026.6hPa NNE 3.0mph /  4.8km/h 5.0mph /  8km/h 82% 0.00in /  0mm
04:10 44.0 °F /  6.7 °C 38.9 °F /  3.8 °C 30.31in /  1026.3hPa NNE 3.0mph /  4.8km/h 3.0mph /  4.8km/h 82% 0.00in /  0mm
04:15 43.9 °F /  6.6 °C 39.1 °F /  3.9 °C 30.31in /  1026.3hPa NE 3.0mph /  4.8km/h 4.0mph /  6.4km/h 83% 0.00in /  0mm
04:20 43.7 °F /  6.5 °C 38.9 °F /  3.8 °C 30.31in /  1026.3hPa NE 2.0mph /  3.2km/h 4.0mph /  6.4km/h 83% 0.00in /  0mm
04:25 43.7 °F /  6.5 °C 38.9 °F /  3.8 °C 30.31in /  1026.3hPa NE 3.0mph /  4.8km/h 5.0mph /  8km/h 83% 0.00in /  0mm
04:26 43.6 °F /  6.4 °C 38.8 °F /  3.8 °C 30.31in /  1026.3hPa NE 4.0mph /  6.4km/h 5.0mph /  8km/h 83% 0.00in /  0mm
04:31 43.6 °F /  6.4 °C 39.1 °F /  3.9 °C 30.31in /  1026.3hPa NNE 3.0mph /  4.8km/h 5.0mph /  8km/h 84% 0.00in /  0mm
04:32 43.6 °F /  6.4 °C 39.1 °F /  3.9 °C 30.31in /  1026.3hPa NE 2.0mph /  3.2km/h 5.0mph /  8km/h 84% 0.00in /  0mm
04:33 43.6 °F /  6.4 °C 39.1 °F /  3.9 °C 30.31in /  1026.3hPa NE 2.0mph /  3.2km/h 5.0mph /  8km/h 84% 0.00in /  0mm
04:37 43.4 °F /  6.3 °C 38.9 °F /  3.8 °C 30.31in /  1026.3hPa NE 2.0mph /  3.2km/h 3.0mph /  4.8km/h 84% 0.00in /  0mm
04:42 43.3 °F /  6.3 °C 38.8 °F /  3.8 °C 30.31in /  1026.3hPa NNE 2.0mph /  3.2km/h 3.0mph /  4.8km/h 84% 0.00in /  0mm
04:47 43.2 °F /  6.2 °C 39.0 °F /  3.9 °C 30.32in /  1026.6hPa NE 1.0mph /  1.6km/h 3.0mph /  4.8km/h 85% 0.00in /  0mm
04:52 43.2 °F /  6.2 °C 39.0 °F /  3.9 °C 30.32in /  1026.6hPa Calm   2.0mph /  3.2km/h 85% 0.00in /  0mm
04:53 43.2 °F /  6.2 °C 39.0 °F /  3.9 °C 30.32in /  1026.6hPa Calm   2.0mph /  3.2km/h 85% 0.00in /  0mm
04:55 43.1 °F /  6.2 °C 38.9 °F /  3.8 °C 30.32in /  1026.6hPa ENE 2.0mph /  3.2km/h 2.0mph /  3.2km/h 85% 0.00in /  0mm
04:58 42.9 °F /  6.1 °C 38.7 °F /  3.7 °C 30.32in /  1026.6hPa NNE 1.0mph /  1.6km/h 2.0mph /  3.2km/h 85% 0.00in /  0mm
05:00 42.8 °F /  6 °C 38.6 °F /  3.7 °C 30.32in /  1026.6hPa NE 3.0mph /  4.8km/h 4.0mph /  6.4km/h 85% 0.00in /  0mm
05:05 42.7 °F /  5.9 °C 38.8 °F /  3.8 °C 30.32in /  1026.6hPa NE 2.0mph /  3.2km/h 3.0mph /  4.8km/h 86% 0.00in /  0mm
05:10 42.5 °F /  5.8 °C 38.6 °F /  3.7 °C 30.32in /  1026.6hPa East 1.0mph /  1.6km/h 2.0mph /  3.2km/h 86% 0.00in /  0mm
05:15 42.4 °F /  5.8 °C 38.5 °F /  3.6 °C 30.32in /  1026.6hPa NE 2.0mph /  3.2km/h 3.0mph /  4.8km/h 86% 0.00in /  0mm
05:20 42.3 °F /  5.7 °C 38.7 °F /  3.7 °C 30.32in /  1026.6hPa NE 1.0mph /  1.6km/h 2.0mph /  3.2km/h 87% 0.00in /  0mm
05:21 42.3 °F /  5.7 °C 38.7 °F /  3.7 °C 30.32in /  1026.6hPa NE 1.0mph /  1.6km/h 2.0mph /  3.2km/h 87% 0.00in /  0mm
05:26 42.2 °F /  5.7 °C 38.6 °F /  3.7 °C 30.32in /  1026.6hPa ENE 1.0mph /  1.6km/h 2.0mph /  3.2km/h 87% 0.00in /  0mm
05:27 42.2 °F /  5.7 °C 38.6 °F /  3.7 °C 30.32in /  1026.6hPa Calm   2.0mph /  3.2km/h 87% 0.00in /  0mm
05:31 42.2 °F /  5.7 °C 38.6 °F /  3.7 °C 30.32in /  1026.6hPa ENE 1.0mph /  1.6km/h 2.0mph /  3.2km/h 87% 0.00in /  0mm
05:32 42.2 °F /  5.7 °C 38.6 °F /  3.7 °C 30.32in /  1026.6hPa ENE 1.0mph /  1.6km/h 2.0mph /  3.2km/h 87% 0.00in /  0mm
05:36 42.2 °F /  5.7 °C 38.6 °F /  3.7 °C 30.32in /  1026.6hPa NE 2.0mph /  3.2km/h 2.0mph /  3.2km/h 87% 0.00in /  0mm
05:37 42.1 °F /  5.6 °C 38.5 °F /  3.6 °C 30.32in /  1026.6hPa NE 2.0mph /  3.2km/h 2.0mph /  3.2km/h 87% 0.00in /  0mm
05:41 41.9 °F /  5.5 °C 38.3 °F /  3.5 °C 30.32in /  1026.6hPa ENE 2.0mph /  3.2km/h 2.0mph /  3.2km/h 87% 0.00in /  0mm
05:46 42.0 °F /  5.6 °C 38.4 °F /  3.6 °C 30.31in /  1026.3hPa ENE 1.0mph /  1.6km/h 2.0mph /  3.2km/h 87% 0.00in /  0mm
05:51 41.9 °F /  5.5 °C 38.3 °F /  3.5 °C 30.31in /  1026.3hPa ENE 2.0mph /  3.2km/h 2.0mph /  3.2km/h 87% 0.00in /  0mm
05:57 42.0 °F /  5.6 °C 38.4 °F /  3.6 °C 30.31in /  1026.3hPa ENE 1.0mph /  1.6km/h 3.0mph /  4.8km/h 87% 0.00in /  0mm
05:58 42.0 °F /  5.6 °C 38.4 °F /  3.6 °C 30.31in /  1026.3hPa Calm   3.0mph /  4.8km/h 87% 0.00in /  0mm
06:03 42.0 °F /  5.6 °C 38.4 °F /  3.6 °C 30.31in /  1026.3hPa ENE 1.0mph /  1.6km/h 2.0mph /  3.2km/h 87% 0.00in /  0mm
06:04 42.0 °F /  5.6 °C 38.4 °F /  3.6 °C 30.31in /  1026.3hPa ENE 3.0mph /  4.8km/h 3.0mph /  4.8km/h 87% 0.00in /  0mm
06:09 41.9 °F /  5.5 °C 38.3 °F /  3.5 °C 30.31in /  1026.3hPa ENE 1.0mph /  1.6km/h 2.0mph /  3.2km/h 87% 0.00in /  0mm
06:14 41.8 °F /  5.4 °C 38.2 °F /  3.4 °C 30.31in /  1026.3hPa ENE 1.0mph /  1.6km/h 1.0mph /  1.6km/h 87% 0.00in /  0mm
06:19 41.5 °F /  5.3 °C 37.9 °F /  3.3 °C 30.31in /  1026.3hPa East 2.0mph /  3.2km/h 2.0mph /  3.2km/h 87% 0.00in /  0mm
06:24 41.4 °F /  5.2 °C 38.1 °F /  3.4 °C 30.31in /  1026.3hPa ESE 1.0mph /  1.6km/h 2.0mph /  3.2km/h 88% 0.00in /  0mm
06:29 41.0 °F /  5 °C 37.7 °F /  3.2 °C 30.31in /  1026.3hPa East 1.0mph /  1.6km/h 1.0mph /  1.6km/h 88% 0.00in /  0mm
06:31 41.0 °F /  5 °C 37.7 °F /  3.2 °C 30.31in /  1026.3hPa Calm   1.0mph /  1.6km/h 88% 0.00in /  0mm
06:32 41.0 °F /  5 °C 37.7 °F /  3.2 °C 30.31in /  1026.3hPa East 1.0mph /  1.6km/h 1.0mph /  1.6km/h 88% 0.00in /  0mm
06:36 41.0 °F /  5 °C 37.7 °F /  3.2 °C 30.31in /  1026.3hPa Calm   1.0mph /  1.6km/h 88% 0.00in /  0mm
06:38 41.0 °F /  5 °C 37.7 °F /  3.2 °C 30.31in /  1026.3hPa Calm   1.0mph /  1.6km/h 88% 0.00in /  0mm
06:43 41.1 °F /  5.1 °C 37.8 °F /  3.2 °C 30.31in /  1026.3hPa NNE 2.0mph /  3.2km/h 3.0mph /  4.8km/h 88% 0.00in /  0mm
06:48 41.5 °F /  5.3 °C 37.9 °F /  3.3 °C 30.31in /  1026.3hPa ENE 2.0mph /  3.2km/h 4.0mph /  6.4km/h 87% 0.00in /  0mm
06:53 41.7 °F /  5.4 °C 38.1 °F /  3.4 °C 30.31in /  1026.3hPa ENE 2.0mph /  3.2km/h 3.0mph /  4.8km/h 87% 0.00in /  0mm
06:58 41.8 °F /  5.4 °C 37.9 °F /  3.3 °C 30.31in /  1026.3hPa ENE 3.0mph /  4.8km/h 5.0mph /  8km/h 86% 0.00in /  0mm
06:59 41.8 °F /  5.4 °C 37.9 °F /  3.3 °C 30.31in /  1026.3hPa NE 2.0mph /  3.2km/h 5.0mph /  8km/h 86% 0.00in /  0mm
07:04 41.8 °F /  5.4 °C 37.9 °F /  3.3 °C 30.31in /  1026.3hPa ENE 2.0mph /  3.2km/h 4.0mph /  6.4km/h 86% 0.00in /  0mm
07:05 41.9 °F /  5.5 °C 38.0 °F /  3.3 °C 30.31in /  1026.3hPa NE 2.0mph /  3.2km/h 4.0mph /  6.4km/h 86% 0.00in /  0mm
07:10 42.0 °F /  5.6 °C 38.1 °F /  3.4 °C 30.31in /  1026.3hPa ENE 2.0mph /  3.2km/h 5.0mph /  8km/h 86% 0.00in /  0mm
07:11 42.0 °F /  5.6 °C 38.1 °F /  3.4 °C 30.31in /  1026.3hPa East 2.0mph /  3.2km/h 5.0mph /  8km/h 86% 0.00in /  0mm
07:16 42.1 °F /  5.6 °C 37.9 °F /  3.3 °C 30.31in /  1026.3hPa NE 2.0mph /  3.2km/h 5.0mph /  8km/h 85% 0.00in /  0mm
07:21 42.2 °F /  5.7 °C 38.0 °F /  3.3 °C 30.31in /  1026.3hPa ENE 1.0mph /  1.6km/h 5.0mph /  8km/h 85% 0.00in /  0mm
07:26 42.3 °F /  5.7 °C 38.1 °F /  3.4 °C 30.31in /  1026.3hPa NNE 2.0mph /  3.2km/h 3.0mph /  4.8km/h 85% 0.00in /  0mm
07:27 42.4 °F /  5.8 °C 38.2 °F /  3.4 °C 30.31in /  1026.3hPa NE 3.0mph /  4.8km/h 3.0mph /  4.8km/h 85% 0.00in /  0mm
07:31 42.5 °F /  5.8 °C 38.0 °F /  3.3 °C 30.31in /  1026.3hPa ESE 2.0mph /  3.2km/h 4.0mph /  6.4km/h 84% 0.00in /  0mm
07:34 42.6 °F /  5.9 °C 38.1 °F /  3.4 °C 30.31in /  1026.3hPa ESE 2.0mph /  3.2km/h 2.0mph /  3.2km/h 84% 0.00in /  0mm
07:35 42.6 °F /  5.9 °C 38.1 °F /  3.4 °C 30.31in /  1026.3hPa East 4.0mph /  6.4km/h 4.0mph /  6.4km/h 84% 0.00in /  0mm
07:36 42.7 °F /  5.9 °C 38.2 °F /  3.4 °C 30.31in /  1026.3hPa East 1.0mph /  1.6km/h 4.0mph /  6.4km/h 84% 0.00in /  0mm
07:41 42.9 °F /  6.1 °C 38.4 °F /  3.6 °C 30.31in /  1026.3hPa East 1.0mph /  1.6km/h 4.0mph /  6.4km/h 84% 0.00in /  0mm
07:46 43.6 °F /  6.4 °C 38.8 °F /  3.8 °C 30.31in /  1026.3hPa East 3.0mph /  4.8km/h 4.0mph /  6.4km/h 83% 0.00in /  0mm
07:51 43.9 °F /  6.6 °C 38.5 °F /  3.6 °C 30.31in /  1026.3hPa ENE 2.0mph /  3.2km/h 6.0mph /  9.7km/h 81% 0.00in /  0mm
07:52 44.0 °F /  6.7 °C 38.5 °F /  3.6 °C 30.31in /  1026.3hPa East 2.0mph /  3.2km/h 6.0mph /  9.7km/h 81% 0.00in /  0mm
07:56 44.2 °F /  6.8 °C 38.8 °F /  3.8 °C 30.31in /  1026.3hPa East 3.0mph /  4.8km/h 5.0mph /  8km/h 81% 0.00in /  0mm
07:57 44.2 °F /  6.8 °C 38.4 °F /  3.6 °C 30.31in /  1026.3hPa ENE 2.0mph /  3.2km/h 3.0mph /  4.8km/h 80% 0.00in /  0mm
08:02 44.5 °F /  6.9 °C 38.7 °F /  3.7 °C 30.31in /  1026.3hPa ESE 2.0mph /  3.2km/h 4.0mph /  6.4km/h 80% 0.00in /  0mm
08:07 44.8 °F /  7.1 °C 38.4 °F /  3.6 °C 30.31in /  1026.3hPa East 4.0mph /  6.4km/h 7.0mph /  11.3km/h 78% 0.00in /  0mm
08:12 45.0 °F /  7.2 °C 38.9 °F /  3.8 °C 30.31in /  1026.3hPa East 1.0mph /  1.6km/h 5.0mph /  8km/h 79% 0.00in /  0mm
08:17 45.5 °F /  7.5 °C 38.7 °F /  3.7 °C 30.31in /  1026.3hPa NE 2.0mph /  3.2km/h 4.0mph /  6.4km/h 77% 0.00in /  0mm
08:18 45.5 °F /  7.5 °C 38.7 °F /  3.7 °C 30.31in /  1026.3hPa ENE 4.0mph /  6.4km/h 4.0mph /  6.4km/h 77% 0.00in /  0mm
08:23 45.9 °F /  7.7 °C 39.1 °F /  3.9 °C 30.31in /  1026.3hPa NE 3.0mph /  4.8km/h 4.0mph /  6.4km/h 77% 0.00in /  0mm
08:28 46.2 °F /  7.9 °C 39.1 °F /  3.9 °C 30.32in /  1026.6hPa East 5.0mph /  8km/h 6.0mph /  9.7km/h 76% 0.00in /  0mm
08:29 46.2 °F /  7.9 °C 39.1 °F /  3.9 °C 30.32in /  1026.6hPa ENE 2.0mph /  3.2km/h 6.0mph /  9.7km/h 76% 0.00in /  0mm
08:34 46.4 °F /  8 °C 39.3 °F /  4.1 °C 30.32in /  1026.6hPa ENE 4.0mph /  6.4km/h 7.0mph /  11.3km/h 76% 0.00in /  0mm
08:38 46.7 °F /  8.2 °C 39.5 °F /  4.2 °C 30.32in /  1026.6hPa East 2.0mph /  3.2km/h 4.0mph /  6.4km/h 76% 0.00in /  0mm
08:39 46.7 °F /  8.2 °C 39.5 °F /  4.2 °C 30.32in /  1026.6hPa ENE 2.0mph /  3.2km/h 4.0mph /  6.4km/h 76% 0.00in /  0mm
08:44 47.5 °F /  8.6 °C 40.3 °F /  4.6 °C 30.32in /  1026.6hPa East 5.0mph /  8km/h 5.0mph /  8km/h 76% 0.00in /  0mm
08:49 47.9 °F /  8.8 °C 40.4 °F /  4.7 °C 30.32in /  1026.6hPa East 4.0mph /  6.4km/h 5.0mph /  8km/h 75% 0.00in /  0mm
08:54 48.3 °F /  9.1 °C 40.4 °F /  4.7 °C 30.32in /  1026.6hPa East 5.0mph /  8km/h 5.0mph /  8km/h 74% 0.00in /  0mm
08:59 48.5 °F /  9.2 °C 39.9 °F /  4.4 °C 30.32in /  1026.6hPa ENE 4.0mph /  6.4km/h 7.0mph /  11.3km/h 72% 0.00in /  0mm
09:04 49.0 °F /  9.4 °C 40.7 °F /  4.8 °C 30.32in /  1026.6hPa East 4.0mph /  6.4km/h 5.0mph /  8km/h 73% 0.00in /  0mm
09:09 49.3 °F /  9.6 °C 40.7 °F /  4.8 °C 30.32in /  1026.6hPa SE 2.0mph /  3.2km/h 7.0mph /  11.3km/h 72% 0.00in /  0mm
09:10 49.4 °F /  9.7 °C 40.8 °F /  4.9 °C 30.32in /  1026.6hPa East 3.0mph /  4.8km/h 7.0mph /  11.3km/h 72% 0.00in /  0mm
09:15 50.1 °F /  10.1 °C 41.1 °F /  5.1 °C 30.32in /  1026.6hPa ESE 7.0mph /  11.3km/h 7.0mph /  11.3km/h 71% 0.00in /  0mm
09:20 50.4 °F /  10.2 °C 41.0 °F /  5 °C 30.32in /  1026.6hPa SE 6.0mph /  9.7km/h 6.0mph /  9.7km/h 70% 0.00in /  0mm
09:25 50.6 °F /  10.3 °C 40.4 °F /  4.7 °C 30.32in /  1026.6hPa ENE 5.0mph /  8km/h 7.0mph /  11.3km/h 68% 0.00in /  0mm
09:26 50.6 °F /  10.3 °C 40.4 °F /  4.7 °C 30.32in /  1026.6hPa ESE 6.0mph /  9.7km/h 7.0mph /  11.3km/h 68% 0.00in /  0mm
09:31 50.9 °F /  10.5 °C 41.1 °F /  5.1 °C 30.32in /  1026.6hPa ENE 4.0mph /  6.4km/h 7.0mph /  11.3km/h 69% 0.00in /  0mm
09:36 51.4 °F /  10.8 °C 40.4 °F /  4.7 °C 30.32in /  1026.6hPa NE 6.0mph /  9.7km/h 6.0mph /  9.7km/h 66% 0.00in /  0mm
09:37 51.5 °F /  10.8 °C 41.3 °F /  5.2 °C 30.32in /  1026.6hPa ENE 6.0mph /  9.7km/h 6.0mph /  9.7km/h 68% 0.00in /  0mm
09:42 51.7 °F /  10.9 °C 40.3 °F /  4.6 °C 30.31in /  1026.3hPa ENE 6.0mph /  9.7km/h 11.0mph /  17.7km/h 65% 0.00in /  0mm
09:47 52.0 °F /  11.1 °C 41.0 °F /  5 °C 30.32in /  1026.6hPa ESE 9.0mph /  14.5km/h 9.0mph /  14.5km/h 66% 0.00in /  0mm
09:52 52.3 °F /  11.3 °C 40.9 °F /  4.9 °C 30.32in /  1026.6hPa East 2.0mph /  3.2km/h 8.0mph /  12.9km/h 65% 0.00in /  0mm
09:57 52.6 °F /  11.4 °C 42.0 °F /  5.6 °C 30.32in /  1026.6hPa East 6.0mph /  9.7km/h 7.0mph /  11.3km/h 67% 0.00in /  0mm
09:58 52.7 °F /  11.5 °C 41.7 °F /  5.4 °C 30.31in /  1026.3hPa East 4.0mph /  6.4km/h 7.0mph /  11.3km/h 66% 0.00in /  0mm
10:02 52.9 °F /  11.6 °C 41.1 °F /  5.1 °C 30.31in /  1026.3hPa East 4.0mph /  6.4km/h 10.0mph /  16.1km/h 64% 0.00in /  0mm
10:03 52.9 °F /  11.6 °C 40.7 °F /  4.8 °C 30.31in /  1026.3hPa ESE 5.0mph /  8km/h 10.0mph /  16.1km/h 63% 0.00in /  0mm
10:08 53.2 °F /  11.8 °C 41.3 °F /  5.2 °C 30.31in /  1026.3hPa ESE 6.0mph /  9.7km/h 10.0mph /  16.1km/h 64% 0.00in /  0mm
10:13 53.3 °F /  11.8 °C 41.8 °F /  5.4 °C 30.31in /  1026.3hPa SE 8.0mph /  12.9km/h 9.0mph /  14.5km/h 65% 0.00in /  0mm
10:18 53.5 °F /  11.9 °C 40.8 °F /  4.9 °C 30.31in /  1026.3hPa SE 3.0mph /  4.8km/h 7.0mph /  11.3km/h 62% 0.00in /  0mm
10:23 53.6 °F /  12 °C 41.3 °F /  5.2 °C 30.31in /  1026.3hPa SE 6.0mph /  9.7km/h 7.0mph /  11.3km/h 63% 0.00in /  0mm
10:28 53.9 °F /  12.2 °C 41.2 °F /  5.1 °C 30.30in /  1026hPa ESE 5.0mph /  8km/h 8.0mph /  12.9km/h 62% 0.00in /  0mm
10:29 53.9 °F /  12.2 °C 40.8 °F /  4.9 °C 30.30in /  1026hPa ENE 6.0mph /  9.7km/h 8.0mph /  12.9km/h 61% 0.00in /  0mm
10:32 54.0 °F /  12.2 °C 40.4 °F /  4.7 °C 30.31in /  1026.3hPa ENE 3.0mph /  4.8km/h 7.0mph /  11.3km/h 60% 0.00in /  0mm
10:34 54.2 °F /  12.3 °C 40.6 °F /  4.8 °C 30.30in /  1026hPa NE 4.0mph /  6.4km/h 5.0mph /  8km/h 60% 0.00in /  0mm
10:35 54.2 °F /  12.3 °C 40.2 °F /  4.6 °C 30.30in /  1026hPa East 2.0mph /  3.2km/h 5.0mph /  8km/h 59% 0.00in /  0mm
10:37 54.3 °F /  12.4 °C 39.8 °F /  4.3 °C 30.30in /  1026hPa East 10.0mph /  16.1km/h 10.0mph /  16.1km/h 58% 0.00in /  0mm
10:40 54.4 °F /  12.4 °C 39.0 °F /  3.9 °C 30.30in /  1026hPa ESE 7.0mph /  11.3km/h 10.0mph /  16.1km/h 56% 0.00in /  0mm
10:42 54.4 °F /  12.4 °C 39.0 °F /  3.9 °C 30.30in /  1026hPa ESE 5.0mph /  8km/h 8.0mph /  12.9km/h 56% 0.00in /  0mm
10:47 54.7 °F /  12.6 °C 39.3 °F /  4.1 °C 30.30in /  1026hPa ESE 5.0mph /  8km/h 9.0mph /  14.5km/h 56% 0.00in /  0mm
10:52 54.6 °F /  12.6 °C 38.3 °F /  3.5 °C 30.30in /  1026hPa East 7.0mph /  11.3km/h 9.0mph /  14.5km/h 54% 0.00in /  0mm
10:53 54.6 °F /  12.6 °C 38.8 °F /  3.8 °C 30.30in /  1026hPa ESE 6.0mph /  9.7km/h 9.0mph /  14.5km/h 55% 0.00in /  0mm
10:57 54.9 °F /  12.7 °C 39.5 °F /  4.2 °C 30.30in /  1026hPa ENE 5.0mph /  8km/h 7.0mph /  11.3km/h 56% 0.00in /  0mm
10:58 54.8 °F /  12.7 °C 39.4 °F /  4.1 °C 30.30in /  1026hPa East 4.0mph /  6.4km/h 7.0mph /  11.3km/h 56% 0.00in /  0mm
11:03 55.1 °F /  12.8 °C 39.7 °F /  4.3 °C 30.30in /  1026hPa ENE 5.0mph /  8km/h 10.0mph /  16.1km/h 56% 0.00in /  0mm
11:08 55.6 °F /  13.1 °C 39.2 °F /  4 °C 30.29in /  1025.6hPa ENE 4.0mph /  6.4km/h 5.0mph /  8km/h 54% 0.00in /  0mm
11:09 55.6 °F /  13.1 °C 39.2 °F /  4 °C 30.29in /  1025.6hPa East 5.0mph /  8km/h 6.0mph /  9.7km/h 54% 0.00in /  0mm
11:15 55.8 °F /  13.2 °C 39.9 °F /  4.4 °C 30.29in /  1025.6hPa SE 4.0mph /  6.4km/h 9.0mph /  14.5km/h 55% 0.00in /  0mm
11:20 56.1 °F /  13.4 °C 39.7 °F /  4.3 °C 30.29in /  1025.6hPa SE 5.0mph /  8km/h 9.0mph /  14.5km/h 54% 0.00in /  0mm
11:25 55.9 °F /  13.3 °C 38.0 °F /  3.3 °C 30.29in /  1025.6hPa ESE 4.0mph /  6.4km/h 10.0mph /  16.1km/h 51% 0.00in /  0mm
11:26 55.9 °F /  13.3 °C 37.0 °F /  2.8 °C 30.29in /  1025.6hPa ESE 3.0mph /  4.8km/h 10.0mph /  16.1km/h 49% 0.00in /  0mm
11:27 55.9 °F /  13.3 °C 37.0 °F /  2.8 °C 30.29in /  1025.6hPa SE 7.0mph /  11.3km/h 10.0mph /  16.1km/h 49% 0.00in /  0mm
11:31 56.1 °F /  13.4 °C 39.7 °F /  4.3 °C 30.29in /  1025.6hPa South 6.0mph /  9.7km/h 8.0mph /  12.9km/h 54% 0.00in /  0mm
11:33 56.5 °F /  13.6 °C 41.5 °F /  5.3 °C 30.29in /  1025.6hPa SE 2.0mph /  3.2km/h 7.0mph /  11.3km/h 57% 0.00in /  0mm
11:38 56.6 °F /  13.7 °C 40.2 °F /  4.6 °C 30.29in /  1025.6hPa SSE 6.0mph /  9.7km/h 8.0mph /  12.9km/h 54% 0.00in /  0mm
11:43 57.1 °F /  13.9 °C 39.7 °F /  4.3 °C 30.29in /  1025.6hPa SE 4.0mph /  6.4km/h 8.0mph /  12.9km/h 52% 0.00in /  0mm
11:45 57.1 °F /  13.9 °C 39.2 °F /  4 °C 30.29in /  1025.6hPa SSE 6.0mph /  9.7km/h 8.0mph /  12.9km/h 51% 0.00in /  0mm
11:49 57.4 °F /  14.1 °C 39.4 °F /  4.1 °C 30.28in /  1025.3hPa SE 7.0mph /  11.3km/h 9.0mph /  14.5km/h 51% 0.00in /  0mm
11:54 57.3 °F /  14.1 °C 39.3 °F /  4.1 °C 30.28in /  1025.3hPa SE 3.0mph /  4.8km/h 7.0mph /  11.3km/h 51% 0.00in /  0mm
11:55 57.4 °F /  14.1 °C 39.4 °F /  4.1 °C 30.28in /  1025.3hPa ESE 3.0mph /  4.8km/h 5.0mph /  8km/h 51% 0.00in /  0mm
11:59 57.8 °F /  14.3 °C 40.3 °F /  4.6 °C 30.28in /  1025.3hPa ESE 7.0mph /  11.3km/h 8.0mph /  12.9km/h 52% 0.00in /  0mm
12:00 57.9 °F /  14.4 °C 39.4 °F /  4.1 °C 30.28in /  1025.3hPa SE 5.0mph /  8km/h 8.0mph /  12.9km/h 50% 0.00in /  0mm
12:06 57.8 °F /  14.3 °C 38.8 °F /  3.8 °C 30.28in /  1025.3hPa East 4.0mph /  6.4km/h 8.0mph /  12.9km/h 49% 0.00in /  0mm
12:11 57.9 °F /  14.4 °C 39.4 °F /  4.1 °C 30.28in /  1025.3hPa SE 4.0mph /  6.4km/h 6.0mph /  9.7km/h 50% 0.00in /  0mm
12:16 58.6 °F /  14.8 °C 39.5 °F /  4.2 °C 30.28in /  1025.3hPa South 2.0mph /  3.2km/h 3.0mph /  4.8km/h 49% 0.00in /  0mm
12:17 58.8 °F /  14.9 °C 39.7 °F /  4.3 °C 30.28in /  1025.3hPa ESE 3.0mph /  4.8km/h 3.0mph /  4.8km/h 49% 0.00in /  0mm
12:22 58.9 °F /  14.9 °C 38.2 °F /  3.4 °C 30.28in /  1025.3hPa ESE 6.0mph /  9.7km/h 6.0mph /  9.7km/h 46% 0.00in /  0mm
12:27 58.6 °F /  14.8 °C 37.9 °F /  3.3 °C 30.28in /  1025.3hPa ENE 3.0mph /  4.8km/h 4.0mph /  6.4km/h 46% 0.00in /  0mm
12:32 59.3 °F /  15.2 °C 40.2 °F /  4.6 °C 30.28in /  1025.3hPa SSE 4.0mph /  6.4km/h 4.0mph /  6.4km/h 49% 0.00in /  0mm
12:33 59.4 °F /  15.2 °C 40.2 °F /  4.6 °C 30.28in /  1025.3hPa East 2.0mph /  3.2km/h 4.0mph /  6.4km/h 49% 0.00in /  0mm
12:37 59.7 °F /  15.4 °C 41.0 °F /  5 °C 30.28in /  1025.3hPa NE 2.0mph /  3.2km/h 4.0mph /  6.4km/h 50% 0.00in /  0mm
12:38 59.7 °F /  15.4 °C 41.0 °F /  5 °C 30.28in /  1025.3hPa North 3.0mph /  4.8km/h 4.0mph /  6.4km/h 50% 0.00in /  0mm
12:43 60.0 °F /  15.6 °C 42.3 °F /  5.7 °C 30.27in /  1024.9hPa NW 4.0mph /  6.4km/h 4.0mph /  6.4km/h 52% 0.00in /  0mm
12:48 59.6 °F /  15.3 °C 39.4 °F /  4.1 °C 30.27in /  1024.9hPa NNE 6.0mph /  9.7km/h 7.0mph /  11.3km/h 47% 0.00in /  0mm
12:53 58.7 °F /  14.8 °C 38.5 °F /  3.6 °C 30.27in /  1024.9hPa NW 3.0mph /  4.8km/h 7.0mph /  11.3km/h 47% 0.00in /  0mm
12:58 58.9 °F /  14.9 °C 40.3 °F /  4.6 °C 30.26in /  1024.6hPa NNW 3.0mph /  4.8km/h 3.0mph /  4.8km/h 50% 0.00in /  0mm
13:03 59.3 °F /  15.2 °C 40.2 °F /  4.6 °C 30.26in /  1024.6hPa NE 1.0mph /  1.6km/h 5.0mph /  8km/h 49% 0.00in /  0mm
13:04 59.3 °F /  15.2 °C 40.2 °F /  4.6 °C 30.26in /  1024.6hPa NE 1.0mph /  1.6km/h 5.0mph /  8km/h 49% 0.00in /  0mm
13:09 59.3 °F /  15.2 °C 41.7 °F /  5.4 °C 30.25in /  1024.3hPa NE 2.0mph /  3.2km/h 4.0mph /  6.4km/h 52% 0.00in /  0mm
13:14 59.8 °F /  15.4 °C 41.7 °F /  5.4 °C 30.25in /  1024.3hPa NNW 2.0mph /  3.2km/h 3.0mph /  4.8km/h 51% 0.00in /  0mm
13:19 59.9 °F /  15.5 °C 40.2 °F /  4.6 °C 30.25in /  1024.3hPa NNW 2.0mph /  3.2km/h 4.0mph /  6.4km/h 48% 0.00in /  0mm
13:24 60.0 °F /  15.6 °C 40.3 °F /  4.6 °C 30.25in /  1024.3hPa NNW 1.0mph /  1.6km/h 4.0mph /  6.4km/h 48% 0.00in /  0mm
13:26 60.2 °F /  15.7 °C 39.9 °F /  4.4 °C 30.24in /  1023.9hPa Calm   3.0mph /  4.8km/h 47% 0.00in /  0mm
13:29 60.8 °F /  16 °C 41.0 °F /  5 °C 30.24in /  1023.9hPa East 4.0mph /  6.4km/h 4.0mph /  6.4km/h 48% 0.00in /  0mm
13:30 60.8 °F /  16 °C 41.0 °F /  5 °C 30.24in /  1023.9hPa ESE 1.0mph /  1.6km/h 4.0mph /  6.4km/h 48% 0.00in /  0mm
13:34 61.2 °F /  16.2 °C 40.8 °F /  4.9 °C 30.24in /  1023.9hPa SSW 2.0mph /  3.2km/h 2.0mph /  3.2km/h 47% 0.00in /  0mm
13:35 61.4 °F /  16.3 °C 39.9 °F /  4.4 °C 30.24in /  1023.9hPa SSE 1.0mph /  1.6km/h 3.0mph /  4.8km/h 45% 0.00in /  0mm
13:36 61.7 °F /  16.5 °C 41.8 °F /  5.4 °C 30.24in /  1023.9hPa SSW 2.0mph /  3.2km/h 3.0mph /  4.8km/h 48% 0.00in /  0mm
13:37 61.8 °F /  16.6 °C 41.9 °F /  5.5 °C 30.24in /  1023.9hPa SSW 1.0mph /  1.6km/h 3.0mph /  4.8km/h 48% 0.00in /  0mm
13:41 61.8 °F /  16.6 °C 39.1 °F /  3.9 °C 30.24in /  1023.9hPa WNW 3.0mph /  4.8km/h 4.0mph /  6.4km/h 43% 0.00in /  0mm
13:46 62.2 °F /  16.8 °C 42.3 °F /  5.7 °C 30.23in /  1023.6hPa North 4.0mph /  6.4km/h 6.0mph /  9.7km/h 48% 0.00in /  0mm
13:51 62.4 °F /  16.9 °C 41.4 °F /  5.2 °C 30.23in /  1023.6hPa SSW 3.0mph /  4.8km/h 3.0mph /  4.8km/h 46% 0.00in /  0mm
13:52 62.4 °F /  16.9 °C 41.4 °F /  5.2 °C 30.23in /  1023.6hPa SSW 3.0mph /  4.8km/h 3.0mph /  4.8km/h 46% 0.00in /  0mm
13:56 62.5 °F /  16.9 °C 41.5 °F /  5.3 °C 30.23in /  1023.6hPa SW 2.0mph /  3.2km/h 5.0mph /  8km/h 46% 0.00in /  0mm
13:57 62.5 °F /  16.9 °C 40.3 °F /  4.6 °C 30.23in /  1023.6hPa SW 1.0mph /  1.6km/h 5.0mph /  8km/h 44% 0.00in /  0mm
14:02 62.5 °F /  16.9 °C 40.3 °F /  4.6 °C 30.22in /  1023.2hPa West 1.0mph /  1.6km/h 3.0mph /  4.8km/h 44% 0.00in /  0mm
14:07 63.0 °F /  17.2 °C 39.0 °F /  3.9 °C 30.22in /  1023.2hPa SE 4.0mph /  6.4km/h 6.0mph /  9.7km/h 41% 0.00in /  0mm
14:12 63.4 °F /  17.4 °C 41.7 °F /  5.4 °C 30.22in /  1023.2hPa ENE 6.0mph /  9.7km/h 6.0mph /  9.7km/h 45% 0.00in /  0mm
14:17 62.8 °F /  17.1 °C 40.0 °F /  4.4 °C 30.21in /  1022.9hPa ENE 1.0mph /  1.6km/h 5.0mph /  8km/h 43% 0.00in /  0mm
14:22 63.3 °F /  17.4 °C 41.6 °F /  5.3 °C 30.21in /  1022.9hPa SSE 2.0mph /  3.2km/h 6.0mph /  9.7km/h 45% 0.00in /  0mm
14:27 64.0 °F /  17.8 °C 41.1 °F /  5.1 °C 30.21in /  1022.9hPa NW 2.0mph /  3.2km/h 2.0mph /  3.2km/h 43% 0.00in /  0mm
14:28 64.1 °F /  17.8 °C 41.8 °F /  5.4 °C 30.21in /  1022.9hPa NW 2.0mph /  3.2km/h 2.0mph /  3.2km/h 44% 0.00in /  0mm
14:33 63.8 °F /  17.7 °C 39.7 °F /  4.3 °C 30.21in /  1022.9hPa WNW 2.0mph /  3.2km/h 5.0mph /  8km/h 41% 0.00in /  0mm
14:34 63.6 °F /  17.6 °C 38.9 °F /  3.8 °C 30.21in /  1022.9hPa WSW 5.0mph /  8km/h 6.0mph /  9.7km/h 40% 0.00in /  0mm
14:38 63.7 °F /  17.6 °C 39.0 °F /  3.9 °C 30.21in /  1022.9hPa SE 2.0mph /  3.2km/h 3.0mph /  4.8km/h 40% 0.00in /  0mm
14:39 64.1 °F /  17.8 °C 40.6 °F /  4.8 °C 30.20in /  1022.6hPa SSW 4.0mph /  6.4km/h 4.0mph /  6.4km/h 42% 0.00in /  0mm
14:43 64.3 °F /  17.9 °C 40.7 °F /  4.8 °C 30.20in /  1022.6hPa West 1.0mph /  1.6km/h 5.0mph /  8km/h 42% 0.00in /  0mm
14:45 64.1 °F /  17.8 °C 39.3 °F /  4.1 °C 30.20in /  1022.6hPa Calm   4.0mph /  6.4km/h 40% 0.00in /  0mm
14:48 64.1 °F /  17.8 °C 39.9 °F /  4.4 °C 30.20in /  1022.6hPa ESE 5.0mph /  8km/h 9.0mph /  14.5km/h 41% 0.00in /  0mm
14:53 64.1 °F /  17.8 °C 42.9 °F /  6.1 °C 30.20in /  1022.6hPa SE 4.0mph /  6.4km/h 7.0mph /  11.3km/h 46% 0.00in /  0mm
14:54 64.2 °F /  17.9 °C 41.3 °F /  5.2 °C 30.20in /  1022.6hPa SSE 5.0mph /  8km/h 7.0mph /  11.3km/h 43% 0.00in /  0mm
14:55 64.3 °F /  17.9 °C 41.9 °F /  5.5 °C 30.20in /  1022.6hPa SSW 4.0mph /  6.4km/h 7.0mph /  11.3km/h 44% 0.00in /  0mm
14:58 64.5 °F /  18.1 °C 39.7 °F /  4.3 °C 30.19in /  1022.2hPa West 1.0mph /  1.6km/h 8.0mph /  12.9km/h 40% 0.00in /  0mm
14:59 64.5 °F /  18.1 °C 39.7 °F /  4.3 °C 30.19in /  1022.2hPa SE 5.0mph /  8km/h 7.0mph /  11.3km/h 40% 0.00in /  0mm
15:03 64.4 °F /  18 °C 39.6 °F /  4.2 °C 30.19in /  1022.2hPa SSE 3.0mph /  4.8km/h 6.0mph /  9.7km/h 40% 0.00in /  0mm
15:08 64.5 °F /  18.1 °C 39.7 °F /  4.3 °C 30.19in /  1022.2hPa WNW 2.0mph /  3.2km/h 5.0mph /  8km/h 40% 0.00in /  0mm
15:13 64.5 °F /  18.1 °C 38.3 °F /  3.5 °C 30.18in /  1021.9hPa WSW 1.0mph /  1.6km/h 3.0mph /  4.8km/h 38% 0.00in /  0mm
15:18 65.0 °F /  18.3 °C 37.4 °F /  3 °C 30.18in /  1021.9hPa SSW 3.0mph /  4.8km/h 5.0mph /  8km/h 36% 0.00in /  0mm
15:19 64.9 °F /  18.3 °C 35.9 °F /  2.2 °C 30.18in /  1021.9hPa SW 2.0mph /  3.2km/h 5.0mph /  8km/h 34% 0.00in /  0mm
15:24 64.9 °F /  18.3 °C 36.6 °F /  2.6 °C 30.18in /  1021.9hPa SSW 4.0mph /  6.4km/h 5.0mph /  8km/h 35% 0.00in /  0mm
15:29 64.9 °F /  18.3 °C 36.6 °F /  2.6 °C 30.18in /  1021.9hPa SE 2.0mph /  3.2km/h 5.0mph /  8km/h 35% 0.00in /  0mm
15:32 65.0 °F /  18.3 °C 39.5 °F /  4.2 °C 30.18in /  1021.9hPa WSW 4.0mph /  6.4km/h 4.0mph /  6.4km/h 39% 0.00in /  0mm
15:34 65.2 °F /  18.4 °C 38.3 °F /  3.5 °C 30.18in /  1021.9hPa SSE 2.0mph /  3.2km/h 4.0mph /  6.4km/h 37% 0.00in /  0mm
15:36 65.4 °F /  18.6 °C 37.8 °F /  3.2 °C 30.18in /  1021.9hPa SW 1.0mph /  1.6km/h 2.0mph /  3.2km/h 36% 0.00in /  0mm
15:41 65.4 °F /  18.6 °C 37.1 °F /  2.8 °C 30.17in /  1021.6hPa East 1.0mph /  1.6km/h 6.0mph /  9.7km/h 35% 0.00in /  0mm
15:46 65.1 °F /  18.4 °C 37.5 °F /  3.1 °C 30.17in /  1021.6hPa SSW 3.0mph /  4.8km/h 4.0mph /  6.4km/h 36% 0.00in /  0mm
15:48 65.0 °F /  18.3 °C 40.1 °F /  4.5 °C 30.17in /  1021.6hPa SW 2.0mph /  3.2km/h 5.0mph /  8km/h 40% 0.00in /  0mm
15:52 65.2 °F /  18.4 °C 38.3 °F /  3.5 °C 30.17in /  1021.6hPa SSE 4.0mph /  6.4km/h 7.0mph /  11.3km/h 37% 0.00in /  0mm
15:53 65.4 °F /  18.6 °C 37.8 °F /  3.2 °C 30.17in /  1021.6hPa SE 2.0mph /  3.2km/h 7.0mph /  11.3km/h 36% 0.00in /  0mm
15:54 65.4 °F /  18.6 °C 37.8 °F /  3.2 °C 30.16in /  1021.2hPa SSE 2.0mph /  3.2km/h 7.0mph /  11.3km/h 36% 0.00in /  0mm
15:57 65.5 °F /  18.6 °C 38.6 °F /  3.7 °C 30.16in /  1021.2hPa SSE 2.0mph /  3.2km/h 5.0mph /  8km/h 37% 0.00in /  0mm
15:58 65.4 °F /  18.6 °C 37.8 °F /  3.2 °C 30.16in /  1021.2hPa ENE 1.0mph /  1.6km/h 5.0mph /  8km/h 36% 0.00in /  0mm
15:59 65.4 °F /  18.6 °C 37.8 °F /  3.2 °C 30.16in /  1021.2hPa NE 1.0mph /  1.6km/h 5.0mph /  8km/h 36% 0.00in /  0mm
16:04 65.3 °F /  18.5 °C 37.7 °F /  3.2 °C 30.15in /  1020.9hPa SE 2.0mph /  3.2km/h 5.0mph /  8km/h 36% 0.00in /  0mm
16:09 65.7 °F /  18.7 °C 38.7 °F /  3.7 °C 30.15in /  1020.9hPa Calm   4.0mph /  6.4km/h 37% 0.00in /  0mm
16:14 65.8 °F /  18.8 °C 42.1 °F /  5.6 °C 30.15in /  1020.9hPa SW 3.0mph /  4.8km/h 5.0mph /  8km/h 42% 0.00in /  0mm
16:19 66.2 °F /  19 °C 43.1 °F /  6.2 °C 30.14in /  1020.5hPa SSW 7.0mph /  11.3km/h 7.0mph /  11.3km/h 43% 0.00in /  0mm
16:24 66.1 °F /  18.9 °C 39.8 °F /  4.3 °C 30.14in /  1020.5hPa SSW 3.0mph /  4.8km/h 5.0mph /  8km/h 38% 0.00in /  0mm
16:29 66.0 °F /  18.9 °C 39.7 °F /  4.3 °C 30.14in /  1020.5hPa NE 3.0mph /  4.8km/h 4.0mph /  6.4km/h 38% 0.00in /  0mm
16:34 66.2 °F /  19 °C 44.2 °F /  6.8 °C 30.14in /  1020.5hPa SE 2.0mph /  3.2km/h 7.0mph /  11.3km/h 45% 0.00in /  0mm
16:35 66.3 °F /  19.1 °C 44.3 °F /  6.8 °C 30.14in /  1020.5hPa West 1.0mph /  1.6km/h 7.0mph /  11.3km/h 45% 0.00in /  0mm
16:36 66.4 °F /  19.1 °C 43.2 °F /  6.2 °C 30.14in /  1020.5hPa SSW 3.0mph /  4.8km/h 5.0mph /  8km/h 43% 0.00in /  0mm
16:39 66.4 °F /  19.1 °C 41.4 °F /  5.2 °C 30.14in /  1020.5hPa SSE 8.0mph /  12.9km/h 8.0mph /  12.9km/h 40% 0.00in /  0mm
16:41 66.3 °F /  19.1 °C 43.2 °F /  6.2 °C 30.14in /  1020.5hPa WSW 2.0mph /  3.2km/h 8.0mph /  12.9km/h 43% 0.00in /  0mm
16:46 66.3 °F /  19.1 °C 43.2 °F /  6.2 °C 30.13in /  1020.2hPa NNE 2.0mph /  3.2km/h 5.0mph /  8km/h 43% 0.00in /  0mm
16:51 66.4 °F /  19.1 °C 42.0 °F /  5.6 °C 30.13in /  1020.2hPa SE 3.0mph /  4.8km/h 8.0mph /  12.9km/h 41% 0.00in /  0mm
16:56 66.3 °F /  19.1 °C 40.0 °F /  4.4 °C 30.13in /  1020.2hPa SE 4.0mph /  6.4km/h 7.0mph /  11.3km/h 38% 0.00in /  0mm
16:57 66.3 °F /  19.1 °C 40.0 °F /  4.4 °C 30.13in /  1020.2hPa SE 6.0mph /  9.7km/h 7.0mph /  11.3km/h 38% 0.00in /  0mm
17:01 66.1 °F /  18.9 °C 41.7 °F /  5.4 °C 30.12in /  1019.9hPa SSE 5.0mph /  8km/h 6.0mph /  9.7km/h 41% 0.00in /  0mm
17:06 66.3 °F /  19.1 °C 40.0 °F /  4.4 °C 30.12in /  1019.9hPa South 1.0mph /  1.6km/h 5.0mph /  8km/h 38% 0.00in /  0mm
17:11 66.2 °F /  19 °C 40.5 °F /  4.7 °C 30.12in /  1019.9hPa Calm   6.0mph /  9.7km/h 39% 0.00in /  0mm
17:16 66.5 °F /  19.2 °C 41.5 °F /  5.3 °C 30.11in /  1019.5hPa WSW 2.0mph /  3.2km/h 2.0mph /  3.2km/h 40% 0.00in /  0mm
17:21 66.6 °F /  19.2 °C 42.8 °F /  6 °C 30.11in /  1019.5hPa South 2.0mph /  3.2km/h 4.0mph /  6.4km/h 42% 0.00in /  0mm
17:27 66.8 °F /  19.3 °C 41.1 °F /  5.1 °C 30.11in /  1019.5hPa South 3.0mph /  4.8km/h 4.0mph /  6.4km/h 39% 0.00in /  0mm
17:29 66.9 °F /  19.4 °C 43.1 °F /  6.2 °C 30.11in /  1019.5hPa South 1.0mph /  1.6km/h 3.0mph /  4.8km/h 42% 0.00in /  0mm
17:33 66.7 °F /  19.3 °C 41.6 °F /  5.3 °C 30.10in /  1019.2hPa ESE 3.0mph /  4.8km/h 7.0mph /  11.3km/h 40% 0.00in /  0mm
17:34 66.4 °F /  19.1 °C 40.7 °F /  4.8 °C 30.10in /  1019.2hPa ESE 2.0mph /  3.2km/h 7.0mph /  11.3km/h 39% 0.00in /  0mm
17:37 66.2 °F /  19 °C 43.1 °F /  6.2 °C 30.10in /  1019.2hPa ESE 6.0mph /  9.7km/h 7.0mph /  11.3km/h 43% 0.00in /  0mm
17:40 65.9 °F /  18.8 °C 41.6 °F /  5.3 °C 30.10in /  1019.2hPa ESE 2.0mph /  3.2km/h 7.0mph /  11.3km/h 41% 0.00in /  0mm
17:42 65.7 °F /  18.7 °C 41.4 °F /  5.2 °C 30.10in /  1019.2hPa ESE 3.0mph /  4.8km/h 4.0mph /  6.4km/h 41% 0.00in /  0mm
17:47 66.0 °F /  18.9 °C 43.5 °F /  6.4 °C 30.10in /  1019.2hPa South 3.0mph /  4.8km/h 11.0mph /  17.7km/h 44% 0.00in /  0mm
17:48 66.0 °F /  18.9 °C 43.5 °F /  6.4 °C 30.10in /  1019.2hPa WSW 3.0mph /  4.8km/h 11.0mph /  17.7km/h 44% 0.00in /  0mm
17:53 66.2 °F /  19 °C 40.5 °F /  4.7 °C 30.10in /  1019.2hPa SSE 3.0mph /  4.8km/h 4.0mph /  6.4km/h 39% 0.00in /  0mm
17:54 66.3 °F /  19.1 °C 41.9 °F /  5.5 °C 30.09in /  1018.8hPa Calm   3.0mph /  4.8km/h 41% 0.00in /  0mm
17:55 66.2 °F /  19 °C 40.5 °F /  4.7 °C 30.09in /  1018.8hPa East 1.0mph /  1.6km/h 3.0mph /  4.8km/h 39% 0.00in /  0mm
17:58 66.2 °F /  19 °C 41.2 °F /  5.1 °C 30.10in /  1019.2hPa SE 5.0mph /  8km/h 7.0mph /  11.3km/h 40% 0.00in /  0mm
18:01 65.6 °F /  18.7 °C 40.7 °F /  4.8 °C 30.10in /  1019.2hPa SE 7.0mph /  11.3km/h 8.0mph /  12.9km/h 40% 0.00in /  0mm
18:03 65.5 °F /  18.6 °C 39.2 °F /  4 °C 30.09in /  1018.8hPa SE 4.0mph /  6.4km/h 8.0mph /  12.9km/h 38% 0.00in /  0mm
18:06 65.3 °F /  18.5 °C 40.4 °F /  4.7 °C 30.09in /  1018.8hPa SE 4.0mph /  6.4km/h 5.0mph /  8km/h 40% 0.00in /  0mm
18:11 64.9 °F /  18.3 °C 40.0 °F /  4.4 °C 30.09in /  1018.8hPa ESE 5.0mph /  8km/h 5.0mph /  8km/h 40% 0.00in /  0mm
18:16 64.7 °F /  18.2 °C 44.0 °F /  6.7 °C 30.09in /  1018.8hPa SSE 4.0mph /  6.4km/h 6.0mph /  9.7km/h 47% 0.00in /  0mm
18:21 64.5 °F /  18.1 °C 44.4 °F /  6.9 °C 30.09in /  1018.8hPa SE 5.0mph /  8km/h 7.0mph /  11.3km/h 48% 0.00in /  0mm
18:26 64.2 °F /  17.9 °C 44.7 °F /  7.1 °C 30.09in /  1018.8hPa South 3.0mph /  4.8km/h 7.0mph /  11.3km/h 49% 0.00in /  0mm
18:31 64.1 °F /  17.8 °C 45.1 °F /  7.3 °C 30.09in /  1018.8hPa SSW 5.0mph /  8km/h 5.0mph /  8km/h 50% 0.00in /  0mm
18:32 64.1 °F /  17.8 °C 45.1 °F /  7.3 °C 30.09in /  1018.8hPa South 5.0mph /  8km/h 5.0mph /  8km/h 50% 0.00in /  0mm
18:37 64.1 °F /  17.8 °C 46.1 °F /  7.8 °C 30.09in /  1018.8hPa South 2.0mph /  3.2km/h 6.0mph /  9.7km/h 52% 0.00in /  0mm
18:42 64.5 °F /  18.1 °C 45.5 °F /  7.5 °C 30.08in /  1018.5hPa SE 3.0mph /  4.8km/h 4.0mph /  6.4km/h 50% 0.00in /  0mm
18:47 65.1 °F /  18.4 °C 45.5 °F /  7.5 °C 30.08in /  1018.5hPa SSE 3.0mph /  4.8km/h 7.0mph /  11.3km/h 49% 0.00in /  0mm
18:52 65.4 °F /  18.6 °C 45.8 °F /  7.7 °C 30.08in /  1018.5hPa SSW 4.0mph /  6.4km/h 7.0mph /  11.3km/h 49% 0.00in /  0mm
18:53 65.4 °F /  18.6 °C 44.7 °F /  7.1 °C 30.08in /  1018.5hPa SSW 4.0mph /  6.4km/h 7.0mph /  11.3km/h 47% 0.00in /  0mm
18:54 65.4 °F /  18.6 °C 45.8 °F /  7.7 °C 30.08in /  1018.5hPa SSW 5.0mph /  8km/h 7.0mph /  11.3km/h 49% 0.00in /  0mm
18:57 65.2 °F /  18.4 °C 45.0 °F /  7.2 °C 30.08in /  1018.5hPa SE 9.0mph /  14.5km/h 9.0mph /  14.5km/h 48% 0.00in /  0mm
18:59 65.0 °F /  18.3 °C 44.8 °F /  7.1 °C 30.08in /  1018.5hPa South 5.0mph /  8km/h 9.0mph /  14.5km/h 48% 0.00in /  0mm
19:06 64.8 °F /  18.2 °C 43.6 °F /  6.4 °C 30.08in /  1018.5hPa South 4.0mph /  6.4km/h 8.0mph /  12.9km/h 46% 0.00in /  0mm
19:11 64.6 °F /  18.1 °C 43.9 °F /  6.6 °C 30.08in /  1018.5hPa SE 5.0mph /  8km/h 7.0mph /  11.3km/h 47% 0.00in /  0mm
19:17 64.1 °F /  17.8 °C 43.5 °F /  6.4 °C 30.08in /  1018.5hPa SSE 6.0mph /  9.7km/h 7.0mph /  11.3km/h 47% 0.00in /  0mm
19:22 64.2 °F /  17.9 °C 43.6 °F /  6.4 °C 30.08in /  1018.5hPa SSE 2.0mph /  3.2km/h 6.0mph /  9.7km/h 47% 0.00in /  0mm
19:27 64.4 °F /  18 °C 43.2 °F /  6.2 °C 30.08in /  1018.5hPa South 3.0mph /  4.8km/h 4.0mph /  6.4km/h 46% 0.00in /  0mm
19:28 64.5 °F /  18.1 °C 42.7 °F /  5.9 °C 30.08in /  1018.5hPa South 4.0mph /  6.4km/h 4.0mph /  6.4km/h 45% 0.00in /  0mm
19:32 64.4 °F /  18 °C 42.6 °F /  5.9 °C 30.08in /  1018.5hPa South 3.0mph /  4.8km/h 4.0mph /  6.4km/h 45% 0.00in /  0mm
19:36 64.4 °F /  18 °C 42.6 °F /  5.9 °C 30.08in /  1018.5hPa South 1.0mph /  1.6km/h 5.0mph /  8km/h 45% 0.00in /  0mm
19:41 64.6 °F /  18.1 °C 41.6 °F /  5.3 °C 30.08in /  1018.5hPa SSE 4.0mph /  6.4km/h 4.0mph /  6.4km/h 43% 0.00in /  0mm
20:10 64.0 °F /  17.8 °C 42.8 °F /  6 °C 30.07in /  1018.2hPa Calm     46% 0.00in /  0mm
20:17 63.3 °F /  17.4 °C 43.3 °F /  6.3 °C 30.07in /  1018.2hPa Calm     48% 0.00in /  0mm
20:18 63.0 °F /  17.2 °C 43.6 °F /  6.4 °C 30.07in /  1018.2hPa Calm     49% 0.00in /  0mm
20:23 61.7 °F /  16.5 °C 43.4 °F /  6.3 °C 30.07in /  1018.2hPa Calm     51% 0.00in /  0mm
20:24 61.6 °F /  16.4 °C 43.3 °F /  6.3 °C 30.07in /  1018.2hPa Calm     51% 0.00in /  0mm
20:29 60.5 °F /  15.8 °C 42.8 °F /  6 °C 30.07in /  1018.2hPa Calm     52% 0.00in /  0mm
20:30 60.3 °F /  15.7 °C 43.6 °F /  6.4 °C 30.07in /  1018.2hPa Calm     54% 0.00in /  0mm
20:35 59.2 °F /  15.1 °C 43.5 °F /  6.4 °C 30.07in /  1018.2hPa Calm     56% 0.00in /  0mm
20:40 58.1 °F /  14.5 °C 44.7 °F /  7.1 °C 30.07in /  1018.2hPa Calm     61% 0.00in /  0mm
20:45 57.3 °F /  14.1 °C 43.1 °F /  6.2 °C 30.07in /  1018.2hPa Calm     59% 0.00in /  0mm
20:50 56.6 °F /  13.7 °C 43.3 °F /  6.3 °C 30.07in /  1018.2hPa Calm     61% 0.00in /  0mm
20:51 56.5 °F /  13.6 °C 43.2 °F /  6.2 °C 30.07in /  1018.2hPa Calm     61% 0.00in /  0mm
20:56 55.6 °F /  13.1 °C 43.2 °F /  6.2 °C 30.07in /  1018.2hPa Calm     63% 0.00in /  0mm
20:57 55.5 °F /  13.1 °C 42.7 °F /  5.9 °C 30.07in /  1018.2hPa Calm     62% 0.00in /  0mm
21:02 54.9 °F /  12.7 °C 42.1 °F /  5.6 °C 30.07in /  1018.2hPa Calm     62% 0.00in /  0mm
21:03 54.9 °F /  12.7 °C 42.1 °F /  5.6 °C 30.07in /  1018.2hPa Calm     62% 0.00in /  0mm
21:08 54.5 °F /  12.5 °C 43.0 °F /  6.1 °C 30.07in /  1018.2hPa Calm     65% 0.00in /  0mm
21:13 53.8 °F /  12.1 °C 42.7 °F /  5.9 °C 30.07in /  1018.2hPa Calm     66% 0.00in /  0mm
21:19 53.6 °F /  12 °C 42.1 °F /  5.6 °C 30.07in /  1018.2hPa Calm     65% 0.00in /  0mm
21:24 53.4 °F /  11.9 °C 42.7 °F /  5.9 °C 30.07in /  1018.2hPa Calm     67% 0.00in /  0mm
21:29 53.1 °F /  11.7 °C 44.3 °F /  6.8 °C 30.07in /  1018.2hPa Calm     72% 0.00in /  0mm
21:31 53.1 °F /  11.7 °C 44.3 °F /  6.8 °C 30.07in /  1018.2hPa Calm     72% 0.00in /  0mm
21:34 53.3 °F /  11.8 °C 44.9 °F /  7.2 °C 30.07in /  1018.2hPa Calm   1.0mph /  1.6km/h 73% 0.00in /  0mm
21:36 53.2 °F /  11.8 °C 44.4 °F /  6.9 °C 30.07in /  1018.2hPa Calm   1.0mph /  1.6km/h 72% 0.00in /  0mm
21:41 52.8 °F /  11.6 °C 43.7 °F /  6.5 °C 30.07in /  1018.2hPa Calm     71% 0.00in /  0mm
21:46 52.4 °F /  11.3 °C 43.3 °F /  6.3 °C 30.07in /  1018.2hPa Calm     71% 0.00in /  0mm
21:51 52.1 °F /  11.2 °C 43.0 °F /  6.1 °C 30.07in /  1018.2hPa SSW 1.0mph /  1.6km/h 1.0mph /  1.6km/h 71% 0.00in /  0mm
21:52 52.2 °F /  11.2 °C 43.5 °F /  6.4 °C 30.07in /  1018.2hPa SSW 1.0mph /  1.6km/h 1.0mph /  1.6km/h 72% 0.00in /  0mm
21:56 52.4 °F /  11.3 °C 42.5 °F /  5.8 °C 30.07in /  1018.2hPa SSW 1.0mph /  1.6km/h 1.0mph /  1.6km/h 69% 0.00in /  0mm
21:57 52.4 °F /  11.3 °C 42.5 °F /  5.8 °C 30.07in /  1018.2hPa SSW 1.0mph /  1.6km/h 1.0mph /  1.6km/h 69% 0.00in /  0mm
21:58 52.4 °F /  11.3 °C 42.9 °F /  6.1 °C 30.07in /  1018.2hPa SSW 1.0mph /  1.6km/h 1.0mph /  1.6km/h 70% 0.00in /  0mm
22:02 51.7 °F /  10.9 °C 43.0 °F /  6.1 °C 30.07in /  1018.2hPa Calm     72% 0.00in /  0mm
22:03 51.6 °F /  10.9 °C 43.6 °F /  6.4 °C 30.07in /  1018.2hPa Calm     74% 0.00in /  0mm
22:08 51.3 °F /  10.7 °C 43.0 °F /  6.1 °C 30.07in /  1018.2hPa Calm     73% 0.00in /  0mm
22:13 51.0 °F /  10.6 °C 43.7 °F /  6.5 °C 30.08in /  1018.5hPa Calm     76% 0.00in /  0mm
22:19 50.6 °F /  10.3 °C 43.7 °F /  6.5 °C 30.07in /  1018.2hPa Calm     77% 0.00in /  0mm
22:20 50.7 °F /  10.4 °C 44.1 °F /  6.7 °C 30.07in /  1018.2hPa Calm     78% 0.00in /  0mm
22:26 50.7 °F /  10.4 °C 44.4 °F /  6.9 °C 30.08in /  1018.5hPa NW 1.0mph /  1.6km/h 2.0mph /  3.2km/h 79% 0.00in /  0mm
22:27 50.6 °F /  10.3 °C 44.7 °F /  7.1 °C 30.08in /  1018.5hPa NW 1.0mph /  1.6km/h 2.0mph /  3.2km/h 80% 0.00in /  0mm
22:31 50.3 °F /  10.2 °C 44.4 °F /  6.9 °C 30.07in /  1018.2hPa NE 2.0mph /  3.2km/h 2.0mph /  3.2km/h 80% 0.00in /  0mm
22:35 50.9 °F /  10.5 °C 40.3 °F /  4.6 °C 30.07in /  1018.2hPa ENE 2.0mph /  3.2km/h 2.0mph /  3.2km/h 67% 0.00in /  0mm
22:40 53.9 °F /  12.2 °C 39.0 °F /  3.9 °C 30.07in /  1018.2hPa Calm   2.0mph /  3.2km/h 57% 0.00in /  0mm
22:45 54.2 °F /  12.3 °C 41.9 °F /  5.5 °C 30.07in /  1018.2hPa NNW 1.0mph /  1.6km/h 1.0mph /  1.6km/h 63% 0.00in /  0mm
22:50 51.3 °F /  10.7 °C 42.6 °F /  5.9 °C 30.07in /  1018.2hPa Calm   1.0mph /  1.6km/h 72% 0.00in /  0mm
22:51 51.1 °F /  10.6 °C 43.1 °F /  6.2 °C 30.07in /  1018.2hPa Calm     74% 0.00in /  0mm
22:55 50.5 °F /  10.3 °C 42.2 °F /  5.7 °C 30.07in /  1018.2hPa Calm     73% 0.00in /  0mm
22:56 50.4 °F /  10.2 °C 42.8 °F /  6 °C 30.07in /  1018.2hPa Calm     75% 0.00in /  0mm
23:00 50.6 °F /  10.3 °C 42.3 °F /  5.7 °C 30.06in /  1017.8hPa ESE 2.0mph /  3.2km/h 2.0mph /  3.2km/h 73% 0.00in /  0mm
23:01 50.7 °F /  10.4 °C 42.0 °F /  5.6 °C 30.06in /  1017.8hPa ESE 1.0mph /  1.6km/h 2.0mph /  3.2km/h 72% 0.00in /  0mm
23:06 51.3 °F /  10.7 °C 41.1 °F /  5.1 °C 30.06in /  1017.8hPa East 2.0mph /  3.2km/h 3.0mph /  4.8km/h 68% 0.00in /  0mm
23:11 52.2 °F /  11.2 °C 42.0 °F /  5.6 °C 30.06in /  1017.8hPa Calm   1.0mph /  1.6km/h 68% 0.00in /  0mm
23:16 51.3 °F /  10.7 °C 43.7 °F /  6.5 °C 30.06in /  1017.8hPa ESE 1.0mph /  1.6km/h 2.0mph /  3.2km/h 75% 0.00in /  0mm
23:21 50.3 °F /  10.2 °C 43.4 °F /  6.3 °C 30.06in /  1017.8hPa ESE 1.0mph /  1.6km/h 1.0mph /  1.6km/h 77% 0.00in /  0mm
23:27 50.0 °F /  10 °C 43.4 °F /  6.3 °C 30.06in /  1017.8hPa WNW 2.0mph /  3.2km/h 2.0mph /  3.2km/h 78% 0.00in /  0mm
23:31 49.1 °F /  9.5 °C 42.5 °F /  5.8 °C 30.06in /  1017.8hPa Calm   1.0mph /  1.6km/h 78% 0.00in /  0mm
23:34 49.0 °F /  9.4 °C 42.8 °F /  6 °C 30.06in /  1017.8hPa WNW 1.0mph /  1.6km/h 1.0mph /  1.6km/h 79% 0.00in /  0mm
23:36 48.9 °F /  9.4 °C 43.0 °F /  6.1 °C 30.06in /  1017.8hPa WNW 1.0mph /  1.6km/h 1.0mph /  1.6km/h 80% 0.00in /  0mm
23:37 48.8 °F /  9.3 °C 42.9 °F /  6.1 °C 30.06in /  1017.8hPa Calm   1.0mph /  1.6km/h 80% 0.00in /  0mm
23:38 48.7 °F /  9.3 °C 43.1 °F /  6.2 °C 30.06in /  1017.8hPa WNW 1.0mph /  1.6km/h 1.0mph /  1.6km/h 81% 0.00in /  0mm
23:44 48.4 °F /  9.1 °C 44.4 °F /  6.9 °C 30.06in /  1017.8hPa NNW 1.0mph /  1.6km/h 2.0mph /  3.2km/h 86% 0.00in /  0mm
23:51 48.1 °F /  8.9 °C 44.4 °F /  6.9 °C 30.06in /  1017.8hPa Calm   1.0mph /  1.6km/h 87% 0.00in /  0mm
23:52 48.0 °F /  8.9 °C 44.0 °F /  6.7 °C 30.06in /  1017.8hPa Calm   1.0mph /  1.6km/h 86% 0.00in /  0mm
23:57 48.4 °F /  9.1 °C 43.2 °F /  6.2 °C 30.06in /  1017.8hPa Calm   1.0mph /  1.6km/h 82% 0.00in /  0mm
23:58 48.5 °F /  9.2 °C 43.0 °F /  6.1 °C 30.06in /  1017.8hPa North 1.0mph /  1.6km/h 1.0mph /  1.6km/h 81% 0.00in /  0mm
Compliments of Weather Underground